Marion Dufresne — FNIN — position and weather

sailwx.info

Track history (hours):
 
Tides and Currents Weather Stations Pressure Air Temp Water Temp Dewpoint Dewpoint Depression Visibility Wind Speed Wind Dir Waves Ship Positions

Oceanographic research ship Marion Dufresne (France)

Detailed information on ship capabilities available from University of Delaware's Ocean Information Center and ARCUS's ALIAS (Arctic Logistics Information and Support) project.

Last reported at 2014-Jul-27 14:22 UTC. Time now 2014-Jul-29 16:47 UTC.
Position N 37°05' W 010°30'.

Length 120 m; beam 21 m.

Type: Passenger vessel. MMSI: 227235000.

Date/timePositionNaut miles runAvg speedWind from/ knotsBaromVisibWave heightAir tempDewpointWater temp
2014-Jul-27 14:22N 37°05' W 010°30'1314.5
2014-Jul-27 13:29N 37°16' W 010°22'1414.6
2014-Jul-27 12:33N 37°28' W 010°13'1514.0
2014-Jul-27 11:30N 37°41' W 010°05'2013.8
2014-Jul-27 10:05N 37°58' W 009°53'913.8
2014-Jul-27 09:26N 38°05' W 009°46'1213.7
2014-Jul-27 08:32N 38°16' W 009°38'1313.5
2014-Jul-27 07:33N 38°28' W 009°30'1110.9
2014-Jul-27 06:30N 38°37' W 009°22'8 8.4
2014-Jul-27 05:33N 38°41' W 009°13'2 2.3
2014-Jul-27 04:33N 38°42' W 009°10'0 0.0
2014-Jul-27 03:32N 38°42' W 009°10'0 0.0
2014-Jul-27 02:32N 38°42' W 009°10'0 0.0
2014-Jul-27 01:31N 38°42' W 009°10'0 0.0
2014-Jul-27 00:31N 38°42' W 009°10'0 0.0
2014-Jul-26 23:33N 38°42' W 009°10'0 0.0
2014-Jul-26 22:33N 38°42' W 009°10'0 0.0
2014-Jul-26 21:33N 38°42' W 009°10'0 0.0
2014-Jul-26 20:29N 38°42' W 009°10'0 0.0
2014-Jul-26 19:32N 38°42' W 009°10'0 0.0
2014-Jul-26 18:33N 38°42' W 009°10'0 0.0
2014-Jul-26 17:33N 38°42' W 009°10'0 0.0
2014-Jul-26 16:33N 38°42' W 009°10'0 0.0
2014-Jul-26 15:33N 38°42' W 009°10'0 0.0
2014-Jul-26 14:33N 38°42' W 009°10'0 0.0
2014-Jul-26 13:33N 38°42' W 009°10'0 0.0
2014-Jul-26 12:33N 38°42' W 009°10'0 0.0
2014-Jul-26 11:33N 38°42' W 009°10'5 4.6
2014-Jul-26 10:33N 38°41' W 009°16'7 6.8
2014-Jul-26 09:33N 38°37' W 009°23'9 8.4
2014-Jul-26 08:29N 38°37' W 009°35'7 7.7
2014-Jul-26 07:33N 38°41' W 009°43'1010.1
2014-Jul-26 06:33N 38°51' W 009°44'1211.7
2014-Jul-26 05:31N 39°02' W 009°47'  
2014-Jul-23 01:22N 50°23' W 000°37'1513.0
2014-Jul-23 00:15N 50°27' W 000°14'1412.9
2014-Jul-22 23:11N 50°30' E 000°06'812.7
2014-Jul-22 22:33N 50°32' E 000°19'1211.9
2014-Jul-22 21:33N 50°35' E 000°37'1111.2
2014-Jul-22 20:33N 50°42' E 000°51'1210.9
2014-Jul-22 19:29N 50°48' E 001°06'1010.9
2014-Jul-22 18:33N 50°55' E 001°18'1312.6
2014-Jul-22 17:33N 51°04' E 001°32'1010.2
2014-Jul-22 16:33N 51°03' E 001°48'9 8.7
2014-Jul-22 15:32N 51°03' E 002°02'1211.9
2014-Jul-22 14:33N 51°04' E 002°21'1 0.9
2014-Jul-22 13:18N 51°03' E 002°22'0 0.0
2014-Jul-22 12:33N 51°03' E 002°22'0 0.0
2014-Jul-22 11:20N 51°03' E 002°22'0 0.0
2014-Jul-22 10:25N 51°03' E 002°22'0 0.0
2014-Jul-22 09:31N 51°03' E 002°22'0 0.0
2014-Jul-22 08:31N 51°03' E 002°22'0 0.0
2014-Jul-22 07:33N 51°03' E 002°22'0 0.0
2014-Jul-22 06:32N 51°03' E 002°22'0 0.0
2014-Jul-22 05:22N 51°03' E 002°22'0 0.0
2014-Jul-22 04:28N 51°03' E 002°22'0 0.0
2014-Jul-22 03:31N 51°03' E 002°22'0 0.0
2014-Jul-22 02:33N 51°03' E 002°22'0 0.0
2014-Jul-22 01:30N 51°03' E 002°22'0 0.0
2014-Jul-22 00:29N 51°03' E 002°22'0 0.0
2014-Jul-21 23:32N 51°03' E 002°22'0 0.0
2014-Jul-21 22:29N 51°03' E 002°22'0 0.0
2014-Jul-21 21:28N 51°03' E 002°22'0 0.0
2014-Jul-21 20:28N 51°03' E 002°22'0 0.0
2014-Jul-21 20:12N 51°03' E 002°22'0 0.0
2014-Jul-21 19:33N 51°03' E 002°22'0 0.0
2014-Jul-21 18:33N 51°03' E 002°22'0 0.0
2014-Jul-21 17:32N 51°03' E 002°22'0 0.0
2014-Jul-21 16:32N 51°03' E 002°22'0 0.0
2014-Jul-21 15:32N 51°03' E 002°22'0 0.0
2014-Jul-21 14:32N 51°03' E 002°22'0 0.0
2014-Jul-21 13:28N 51°03' E 002°22'0 0.0
2014-Jul-21 12:30N 51°03' E 002°22'0 0.0
2014-Jul-21 11:10N 51°03' E 002°22'0 0.0
2014-Jul-21 10:28N 51°03' E 002°22'0 0.0
2014-Jul-21 09:19N 51°03' E 002°22'0 0.0
2014-Jul-21 08:18N 51°03' E 002°22'0 0.0
2014-Jul-21 07:30N 51°03' E 002°22'0 0.0
2014-Jul-21 06:23N 51°03' E 002°22'0 0.0
2014-Jul-21 05:08N 51°03' E 002°22'0 0.0
2014-Jul-21 04:19N 51°03' E 002°22'0 0.0
2014-Jul-21 03:22N 51°03' E 002°22'0 0.0
2014-Jul-21 02:31N 51°03' E 002°22'0 0.0
2014-Jul-21 00:30N 51°03' E 002°22'0 0.0
2014-Jul-20 23:32N 51°03' E 002°22'0 0.0
2014-Jul-20 22:32N 51°03' E 002°22'0 0.0
2014-Jul-20 21:32N 51°03' E 002°22'0 0.0
2014-Jul-20 20:28N 51°03' E 002°22'0 0.0
2014-Jul-20 19:19N 51°03' E 002°22'0 0.0
2014-Jul-20 18:33N 51°03' E 002°22'0 0.0
2014-Jul-20 17:30N 51°03' E 002°22'0 0.0
2014-Jul-20 16:32N 51°03' E 002°22'0 0.0
2014-Jul-20 15:29N 51°03' E 002°22'0 0.0
2014-Jul-20 14:25N 51°03' E 002°22'0 0.0
2014-Jul-20 13:25N 51°03' E 002°22'0 0.0
2014-Jul-20 12:25N 51°03' E 002°22'0 0.0
2014-Jul-20 11:33N 51°03' E 002°22'0 0.0
2014-Jul-20 10:33N 51°03' E 002°22'0 0.0
2014-Jul-20 09:26N 51°03' E 002°22'0 0.0
2014-Jul-20 08:26N 51°03' E 002°22'0 0.0
2014-Jul-20 07:16N 51°03' E 002°22'0 0.0
2014-Jul-20 06:13N 51°03' E 002°22'0 0.0
2014-Jul-20 04:21N 51°03' E 002°22'0 0.0
2014-Jul-20 03:21N 51°03' E 002°22'0 0.0
2014-Jul-20 02:29N 51°03' E 002°22'0 0.0
2014-Jul-20 01:29N 51°03' E 002°22'0 0.0
2014-Jul-20 00:19N 51°03' E 002°22'0 0.0
2014-Jul-19 23:31N 51°03' E 002°22'0 0.0
2014-Jul-19 22:15N 51°03' E 002°22'0 0.0
2014-Jul-19 21:15N 51°03' E 002°22'0 0.0
2014-Jul-19 20:33N 51°03' E 002°22'0 0.0
2014-Jul-19 19:29N 51°03' E 002°22'0 0.0
2014-Jul-19 17:07N 51°03' E 002°22'0 0.0
2014-Jul-19 16:04N 51°03' E 002°22'0 0.0
2014-Jul-19 15:27N 51°03' E 002°22'0 0.0
2014-Jul-19 14:33N 51°03' E 002°22'0 0.0
2014-Jul-19 13:24N 51°03' E 002°22'0 0.0
2014-Jul-19 11:26N 51°03' E 002°22'0 0.0
2014-Jul-19 10:16N 51°03' E 002°22'0 0.0
2014-Jul-19 09:19N 51°03' E 002°22'0 0.0
2014-Jul-19 07:21N 51°03' E 002°22'0 0.0
2014-Jul-19 04:26N 51°03' E 002°22'0 0.0
2014-Jul-19 03:30N 51°03' E 002°22'0 0.0
2014-Jul-19 02:31N 51°03' E 002°22'0 0.0
2014-Jul-19 01:33N 51°03' E 002°22'0 0.0
2014-Jul-18 23:11N 51°03' E 002°22'0 0.0
2014-Jul-18 22:26N 51°03' E 002°22'0 0.0
2014-Jul-18 21:29N 51°03' E 002°22'0 0.0
2014-Jul-18 20:25N 51°03' E 002°22'0 0.0
2014-Jul-18 19:31N 51°03' E 002°22'0 0.0
2014-Jul-18 18:33N 51°03' E 002°22'0 0.0
2014-Jul-18 17:33N 51°03' E 002°22'0 0.0
2014-Jul-18 16:26N 51°03' E 002°22'0 0.0
2014-Jul-18 15:32N 51°03' E 002°22'0 0.0
2014-Jul-18 13:28N 51°03' E 002°22'0 0.0
2014-Jul-18 12:31N 51°03' E 002°22'0 0.0
2014-Jul-18 11:09N 51°03' E 002°22'0 0.0
2014-Jul-18 10:30N 51°03' E 002°22'0 0.0
2014-Jul-18 09:29N 51°03' E 002°22'0 0.0
2014-Jul-18 08:29N 51°03' E 002°22'0 0.0
2014-Jul-18 07:31N 51°03' E 002°22'0 0.0
2014-Jul-18 06:16N 51°03' E 002°22'0 0.0
2014-Jul-18 05:09N 51°03' E 002°22'0 0.0
2014-Jul-18 04:27N 51°03' E 002°22'0 0.0
2014-Jul-18 03:27N 51°03' E 002°22'0 0.0
2014-Jul-18 02:26N 51°03' E 002°22'0 0.0
2014-Jul-18 01:32N 51°03' E 002°22'0 0.0
2014-Jul-18 00:31N 51°03' E 002°22'0 0.0
2014-Jul-17 23:31N 51°03' E 002°22'0 0.0
2014-Jul-17 22:31N 51°03' E 002°22'0 0.0
2014-Jul-17 21:30N 51°03' E 002°22'0 0.0
2014-Jul-17 20:33N 51°03' E 002°22'0 0.0
2014-Jul-17 19:32N 51°03' E 002°22'0 0.0
2014-Jul-17 18:32N 51°03' E 002°22'0 0.0
2014-Jul-17 17:22N 51°03' E 002°22'0 0.0
2014-Jul-17 16:28N 51°03' E 002°22'0 0.0
2014-Jul-17 15:34N 51°03' E 002°22'0 0.0
2014-Jul-17 14:33N 51°03' E 002°22'  
Track history (hours):
 
Tides and Currents Weather Stations Pressure Air Temp Water Temp Dewpoint Dewpoint Depression Visibility Wind Speed Wind Dir Waves Ship Positions

Oceanographic research ship Marion Dufresne (France)

Detailed information on ship capabilities available from University of Delaware's Ocean Information Center and ARCUS's ALIAS (Arctic Logistics Information and Support) project.

Last reported at 2014-Jul-27 14:22 UTC. Time now 2014-Jul-29 16:47 UTC.
Position N 37°05' W 010°30'.

Length 120 m; beam 21 m.

Type: Passenger vessel. MMSI: 227235000.

Date/timePositionNaut miles runAvg speedWind from/ knotsBaromVisibWave heightAir tempDewpointWater temp
2014-Jul-27 14:22N 37°05' W 010°30'1314.5
2014-Jul-27 13:29N 37°16' W 010°22'1414.6
2014-Jul-27 12:33N 37°28' W 010°13'1514.0
2014-Jul-27 11:30N 37°41' W 010°05'2013.8
2014-Jul-27 10:05N 37°58' W 009°53'913.8
2014-Jul-27 09:26N 38°05' W 009°46'1213.7
2014-Jul-27 08:32N 38°16' W 009°38'1313.5
2014-Jul-27 07:33N 38°28' W 009°30'1110.9
2014-Jul-27 06:30N 38°37' W 009°22'8 8.4
2014-Jul-27 05:33N 38°41' W 009°13'2 2.3
2014-Jul-27 04:33N 38°42' W 009°10'0 0.0
2014-Jul-27 03:32N 38°42' W 009°10'0 0.0
2014-Jul-27 02:32N 38°42' W 009°10'0 0.0
2014-Jul-27 01:31N 38°42' W 009°10'0 0.0
2014-Jul-27 00:31N 38°42' W 009°10'0 0.0
2014-Jul-26 23:33N 38°42' W 009°10'0 0.0
2014-Jul-26 22:33N 38°42' W 009°10'0 0.0
2014-Jul-26 21:33N 38°42' W 009°10'0 0.0
2014-Jul-26 20:29N 38°42' W 009°10'0 0.0
2014-Jul-26 19:32N 38°42' W 009°10'0 0.0
2014-Jul-26 18:33N 38°42' W 009°10'0 0.0
2014-Jul-26 17:33N 38°42' W 009°10'0 0.0
2014-Jul-26 16:33N 38°42' W 009°10'0 0.0
2014-Jul-26 15:33N 38°42' W 009°10'0 0.0
2014-Jul-26 14:33N 38°42' W 009°10'0 0.0
2014-Jul-26 13:33N 38°42' W 009°10'0 0.0
2014-Jul-26 12:33N 38°42' W 009°10'0 0.0
2014-Jul-26 11:33N 38°42' W 009°10'5 4.6
2014-Jul-26 10:33N 38°41' W 009°16'7 6.8
2014-Jul-26 09:33N 38°37' W 009°23'9 8.4
2014-Jul-26 08:29N 38°37' W 009°35'7 7.7
2014-Jul-26 07:33N 38°41' W 009°43'1010.1
2014-Jul-26 06:33N 38°51' W 009°44'1211.7
2014-Jul-26 05:31N 39°02' W 009°47'  
2014-Jul-23 01:22N 50°23' W 000°37'1513.0
2014-Jul-23 00:15N 50°27' W 000°14'1412.9
2014-Jul-22 23:11N 50°30' E 000°06'812.7
2014-Jul-22 22:33N 50°32' E 000°19'1211.9
2014-Jul-22 21:33N 50°35' E 000°37'1111.2
2014-Jul-22 20:33N 50°42' E 000°51'1210.9
2014-Jul-22 19:29N 50°48' E 001°06'1010.9
2014-Jul-22 18:33N 50°55' E 001°18'1312.6
2014-Jul-22 17:33N 51°04' E 001°32'1010.2
2014-Jul-22 16:33N 51°03' E 001°48'9 8.7
2014-Jul-22 15:32N 51°03' E 002°02'1211.9
2014-Jul-22 14:33N 51°04' E 002°21'1 0.9
2014-Jul-22 13:18N 51°03' E 002°22'0 0.0
2014-Jul-22 12:33N 51°03' E 002°22'0 0.0
2014-Jul-22 11:20N 51°03' E 002°22'0 0.0
2014-Jul-22 10:25N 51°03' E 002°22'0 0.0
2014-Jul-22 09:31N 51°03' E 002°22'0 0.0
2014-Jul-22 08:31N 51°03' E 002°22'0 0.0
2014-Jul-22 07:33N 51°03' E 002°22'0 0.0
2014-Jul-22 06:32N 51°03' E 002°22'0 0.0
2014-Jul-22 05:22N 51°03' E 002°22'0 0.0
2014-Jul-22 04:28N 51°03' E 002°22'0 0.0
2014-Jul-22 03:31N 51°03' E 002°22'0 0.0
2014-Jul-22 02:33N 51°03' E 002°22'0 0.0
2014-Jul-22 01:30N 51°03' E 002°22'0 0.0
2014-Jul-22 00:29N 51°03' E 002°22'0 0.0
2014-Jul-21 23:32N 51°03' E 002°22'0 0.0
2014-Jul-21 22:29N 51°03' E 002°22'0 0.0
2014-Jul-21 21:28N 51°03' E 002°22'0 0.0
2014-Jul-21 20:28N 51°03' E 002°22'0 0.0
2014-Jul-21 20:12N 51°03' E 002°22'0 0.0
2014-Jul-21 19:33N 51°03' E 002°22'0 0.0
2014-Jul-21 18:33N 51°03' E 002°22'0 0.0
2014-Jul-21 17:32N 51°03' E 002°22'0 0.0
2014-Jul-21 16:32N 51°03' E 002°22'0 0.0
2014-Jul-21 15:32N 51°03' E 002°22'0 0.0
2014-Jul-21 14:32N 51°03' E 002°22'0 0.0
2014-Jul-21 13:28N 51°03' E 002°22'0 0.0
2014-Jul-21 12:30N 51°03' E 002°22'0 0.0
2014-Jul-21 11:10N 51°03' E 002°22'0 0.0
2014-Jul-21 10:28N 51°03' E 002°22'0 0.0
2014-Jul-21 09:19N 51°03' E 002°22'0 0.0
2014-Jul-21 08:18N 51°03' E 002°22'0 0.0
2014-Jul-21 07:30N 51°03' E 002°22'0 0.0
2014-Jul-21 06:23N 51°03' E 002°22'0 0.0
2014-Jul-21 05:08N 51°03' E 002°22'0 0.0
2014-Jul-21 04:19N 51°03' E 002°22'0 0.0
2014-Jul-21 03:22N 51°03' E 002°22'0 0.0
2014-Jul-21 02:31N 51°03' E 002°22'0 0.0
2014-Jul-21 00:30N 51°03' E 002°22'0 0.0
2014-Jul-20 23:32N 51°03' E 002°22'0 0.0
2014-Jul-20 22:32N 51°03' E 002°22'0 0.0
2014-Jul-20 21:32N 51°03' E 002°22'0 0.0
2014-Jul-20 20:28N 51°03' E 002°22'0 0.0
2014-Jul-20 19:19N 51°03' E 002°22'0 0.0
2014-Jul-20 18:33N 51°03' E 002°22'0 0.0
2014-Jul-20 17:30N 51°03' E 002°22'0 0.0
2014-Jul-20 16:32N 51°03' E 002°22'0 0.0
2014-Jul-20 15:29N 51°03' E 002°22'0 0.0
2014-Jul-20 14:25N 51°03' E 002°22'0 0.0
2014-Jul-20 13:25N 51°03' E 002°22'0 0.0
2014-Jul-20 12:25N 51°03' E 002°22'0 0.0
2014-Jul-20 11:33N 51°03' E 002°22'0 0.0
2014-Jul-20 10:33N 51°03' E 002°22'0 0.0
2014-Jul-20 09:26N 51°03' E 002°22'0 0.0
2014-Jul-20 08:26N 51°03' E 002°22'0 0.0
2014-Jul-20 07:16N 51°03' E 002°22'0 0.0
2014-Jul-20 06:13N 51°03' E 002°22'0 0.0
2014-Jul-20 04:21N 51°03' E 002°22'0 0.0
2014-Jul-20 03:21N 51°03' E 002°22'0 0.0
2014-Jul-20 02:29N 51°03' E 002°22'0 0.0
2014-Jul-20 01:29N 51°03' E 002°22'0 0.0
2014-Jul-20 00:19N 51°03' E 002°22'0 0.0
2014-Jul-19 23:31N 51°03' E 002°22'0 0.0
2014-Jul-19 22:15N 51°03' E 002°22'0 0.0
2014-Jul-19 21:15N 51°03' E 002°22'0 0.0
2014-Jul-19 20:33N 51°03' E 002°22'0 0.0
2014-Jul-19 19:29N 51°03' E 002°22'0 0.0
2014-Jul-19 17:07N 51°03' E 002°22'0 0.0
2014-Jul-19 16:04N 51°03' E 002°22'0 0.0
2014-Jul-19 15:27N 51°03' E 002°22'0 0.0
2014-Jul-19 14:33N 51°03' E 002°22'0 0.0
2014-Jul-19 13:24N 51°03' E 002°22'0 0.0
2014-Jul-19 11:26N 51°03' E 002°22'0 0.0
2014-Jul-19 10:16N 51°03' E 002°22'0 0.0
2014-Jul-19 09:19N 51°03' E 002°22'0 0.0
2014-Jul-19 07:21N 51°03' E 002°22'0 0.0
2014-Jul-19 04:26N 51°03' E 002°22'0 0.0
2014-Jul-19 03:30N 51°03' E 002°22'0 0.0
2014-Jul-19 02:31N 51°03' E 002°22'0 0.0
2014-Jul-19 01:33N 51°03' E 002°22'0 0.0
2014-Jul-18 23:11N 51°03' E 002°22'0 0.0
2014-Jul-18 22:26N 51°03' E 002°22'0 0.0
2014-Jul-18 21:29N 51°03' E 002°22'0 0.0
2014-Jul-18 20:25N 51°03' E 002°22'0 0.0
2014-Jul-18 19:31N 51°03' E 002°22'0 0.0
2014-Jul-18 18:33N 51°03' E 002°22'0 0.0
2014-Jul-18 17:33N 51°03' E 002°22'0 0.0
2014-Jul-18 16:26N 51°03' E 002°22'0 0.0
2014-Jul-18 15:32N 51°03' E 002°22'0 0.0
2014-Jul-18 13:28N 51°03' E 002°22'0 0.0
2014-Jul-18 12:31N 51°03' E 002°22'0 0.0
2014-Jul-18 11:09N 51°03' E 002°22'0 0.0
2014-Jul-18 10:30N 51°03' E 002°22'0 0.0
2014-Jul-18 09:29N 51°03' E 002°22'0 0.0
2014-Jul-18 08:29N 51°03' E 002°22'0 0.0
2014-Jul-18 07:31N 51°03' E 002°22'0 0.0
2014-Jul-18 06:16N 51°03' E 002°22'0 0.0
2014-Jul-18 05:09N 51°03' E 002°22'0 0.0
2014-Jul-18 04:27N 51°03' E 002°22'0 0.0
2014-Jul-18 03:27N 51°03' E 002°22'0 0.0
2014-Jul-18 02:26N 51°03' E 002°22'0 0.0
2014-Jul-18 01:32N 51°03' E 002°22'0 0.0
2014-Jul-18 00:31N 51°03' E 002°22'0 0.0
2014-Jul-17 23:31N 51°03' E 002°22'0 0.0
2014-Jul-17 22:31N 51°03' E 002°22'0 0.0
2014-Jul-17 21:30N 51°03' E 002°22'0 0.0
2014-Jul-17 20:33N 51°03' E 002°22'0 0.0
2014-Jul-17 19:32N 51°03' E 002°22'0 0.0
2014-Jul-17 18:32N 51°03' E 002°22'0 0.0
2014-Jul-17 17:22N 51°03' E 002°22'0 0.0
2014-Jul-17 16:28N 51°03' E 002°22'0 0.0
2014-Jul-17 15:34N 51°03' E 002°22'0 0.0
2014-Jul-17 14:33N 51°03' E 002°22'  

Dump ship's entire track history